CSS2 weather

Rivière-du-Loup Heliport
Rivière-du-Loup, Quebec, Canada

Public forecast

Using degrees Celsius for public forecast. Weather courtesy of forecast.io.

METAR (pilot weather report)

Closest report is Northern Aroostook Regional Airport, 60.2 nm (111.5 km) ESE. Retrieved 2019/05/24 06:53 UTC (7 minutes ago):

KFVE 240653Z AUTO 08008KT 10SM -RA OVC055 11/07 A2976 RMK AO2 SLP075 P0000 T01110072

TAF (pilot weather forecast)

Forecast is more than 12 hours old.

Closest forecast is Charlevoix Airport, 31.4 nm (58.2 km) WSW. Retrieved 2018/06/10 18:00 UTC (12 months ago):

TAF CYML 101730Z 1018/1106 12005KT P6SM FEW060 FM102100 14006KT P6SM SCT080 BECMG 1021/1023 VRB03KT RMK NXT FCST BY 110000Z